ADDS METAR Data INFO
IDs: Format: Raw Decoded Include TAF

Data at: 0212 UTC 17 Aug 2018

PAQT 170153Z AUTO 26012G21KT 8SM -RA FEW020 OVC028 09/08 A2940 RMK SLP957 P0004 T00940083 TSNO $ VIA AUTODIAL
PAQT 170145Z AUTO 27015KT 7SM -RA FEW014 OVC028 09/08 A2940 RMK P0003 T00940083 TSNO $ VIA AUTODIAL
PAQT 170053Z AUTO 26016KT 10SM -RA BKN039 OVC045 09/08 A2940 RMK SLP956 P0003 T00940083 TSNO $ VIA AUTODIAL
PAQT 170028Z AUTO 26019G23KT 8SM -RA SCT013 SCT039 OVC047 10/09 A2940 RMK P0002 T01000089 TSNO $ VIA AUTODIAL
PAQT 170015Z AUTO 25013KT 7SM -RA BKN013 BKN042 OVC050 10/09 A2940 RMK P0002 T01000094 TSNO $ VIA AUTODIAL
PAQT 162353Z AUTO 26014KT 7SM -RA FEW012 OVC050 10/09 A2940 RMK SLP957 P0002 60021 T01000089 10100 20072 58008 TSNO $ VIA AUTODIAL
PAQT 162337Z AUTO 25016KT 7SM -RA SCT012 BKN055 10/09 A2940 RMK P0001 T01000089 TSNO $ VIA AUTODIAL
PAQT 162253Z AUTO 25016KT 9SM -RA BKN012 BKN020 OVC028 09/09 A2941 RMK SLP961 P0002 T00940089 TSNO $ VIA AUTODIAL
PAQT 162231Z AUTO 25014KT 6SM -RA BR BKN011 BKN023 OVC049 09/09 A2942 RMK P0001 T00940089 TSNO $ VIA AUTODIAL
PAQT 162217Z AUTO 24017KT 8SM -RA SCT009 BKN018 OVC049 09/09 A2942 RMK P0001 T00940089 TSNO $ VIA AUTODIAL
PAQT 162153Z AUTO 25018KT 6SM -RA BR SCT011 BKN035 OVC055 09/08 A2942 RMK PK WND 25026/2137 SLP964 P0004 T00940083 TSNO $ VIA AUTODIAL
PAQT 162131Z AUTO 25018G24KT 9SM -RA FEW009 BKN035 OVC049 09/08 A2942 RMK P0002 T00890083 TSNO $ VIA AUTODIAL
PAQT 162053Z AUTO 25016G24KT 4SM -RA BR BKN010 OVC030 09/08 A2943 RMK SLP965 P0004 60013 T00890083 56006 TSNO $ VIA AUTODIAL
PAQT 162008Z AUTO 25018G23KT 5SM -RA BR BKN010 OVC027 08/08 A2943 RMK P0001 T00830078 TSNO $ VIA AUTODIAL
PAQT 161953Z AUTO 25014KT 4SM RA BR BKN008 OVC027 08/08 A2943 RMK SLP968 P0006 T00830078 TSNO $ VIA AUTODIAL
PAQT 161951Z AUTO 25015KT 4SM RA BR SCT008 OVC027 08/08 A2943 RMK P0005 TSNO $ VIA AUTODIAL
PAQT 161939Z AUTO 25017G23KT 5SM -RA BR BKN009 OVC029 08/08 A2943 RMK P0004 T00830078 TSNO $ VIA AUTODIAL
PAQT 161927Z AUTO 25017G23KT 4SM RA BR OVC010 08/08 A2944 RMK P0003 T00830078 TSNO $ VIA AUTODIAL
PAQT 161853Z AUTO 24012KT 4SM -RA BR BKN008 OVC013 08/08 A2944 RMK RAB11 CIG 005V010 SLP971 P0003 T00780078 TSNO $ VIA AUTODIAL
PAQT 161816Z AUTO 25014KT 9SM -RA OVC006 08/07 A2945 RMK RAB11 CIG 004V008 P0000 T00780072 TSNO $ VIA AUTODIAL
PAQT 161753Z AUTO 25012KT 3SM BR OVC004 07/07 A2946 RMK SLP975 60010 T00720072 10078 20061 58003 TSNO $ VIA AUTODIAL
PAQT 161653Z AUTO 25015G21KT 7SM OVC007 07/06 A2947 RMK SLP979 T00670061 TSNO $ VIA AUTODIAL
PAQT 161553Z AUTO 26011KT 10SM BKN007 OVC014 06/06 A2947 RMK RAE1454B09E22 CIG 005V010 SLP980 P0000 T00610061 TSNO $ VIA AUTODIAL
PAQT 161518Z AUTO 28011KT 3SM -RA BR OVC005 06/06 A2947 RMK RAE1454B09 CIG 003V008 P0000 T00610061 TSNO $ VIA AUTODIAL
PAQT 161504Z AUTO 28010KT 1 1/2SM BR OVC006 06/06 A2947 RMK RAE1454 CIG 003V009 P0000 T00610061 TSNO $ VIA AUTODIAL
PAQT 161453Z AUTO 28013KT 2 1/2SM -RA BR BKN006 OVC013 07/06 A2947 RMK CIG 004V009 SLP978 P0002 60010 T00670061 51006 TSNO $ VIA AUTODIAL
PAQT 161449Z AUTO 28014KT 2 1/2SM -RA BR BKN006 BKN010 OVC013 07/07 A2946 RMK VIS 2V4 CIG 004V009 P0002 TSNO $ VIA AUTODIAL
PAQT 161423Z AUTO 27014KT 6SM -RA BR BKN006 OVC012 07/07 A2946 RMK CIG 003V010 P0001 T00670067 TSNO $ VIA AUTODIAL
PAQT 161409Z AUTO 27012KT 3SM -RA BR OVC004 07/07 A2946 RMK CIG 003V008 P0001 T00670067 TSNO $ VIA AUTODIAL
PAQT 161402Z AUTO 28008KT 2 1/2SM -RA BR OVC005 07/07 A2946 RMK CIG 003V008 P0001 T00720072 TSNO $ VIA AUTODIAL
PAQT 161353Z AUTO 28010KT 3SM -RA BR OVC006 07/07 A2946 RMK CIG 004V008 SLP977 P0004 T00720072 TSNO $ VIA AUTODIAL
PAQT 161253Z AUTO 26015KT 7SM -RA BKN009 OVC018 08/08 A2945 RMK PK WND 27028/1229 RAB01 SLP973 P0004 T00780078 TSNO $ VIA AUTODIAL
PAQT 161251Z AUTO 26014KT 7SM -RA BKN009 OVC018 08/07 A2945 RMK PK WND 27028/1229 RAB01 P0004 TSNO $ VIA AUTODIAL
PAQT 161242Z AUTO 26014G20KT 8SM -RA BKN010 OVC021 08/08 A2945 RMK PK WND 27028/1229 RAB01 P0003 T00780078 TSNO $ VIA AUTODIAL
PAQT 161153Z AUTO 26019G28KT 10SM OVC007 08/08 A2944 RMK PK WND 26028/1150 SLP969 60001 70010 T00830078 10100 20083 51011 TSNO $ VIA AUTODIAL
PAQT 161053Z AUTO 26019G26KT 10SM OVC009 08/08 A2942 RMK PK WND 25028/1043 RAE17 CIG 005V013 SLP964 P0000 T00830078 TSNO $ VIA AUTODIAL
PAQT 161020Z AUTO 25018G26KT 4SM BR OVC007 08/08 A2941 RMK PK WND 26026/1016 RAE17 P0000 T00830078 TSNO $ VIA AUTODIAL
PAQT 160953Z AUTO 26018G26KT 2SM -RA BR BKN007 OVC014 08/08 A2942 RMK PK WND 27031/0939 RAE0859B40 SLP963 P0000 T00830078 TSNO $ VIA AUTODIAL
PAQT 160947Z AUTO 27018G31KT 2 1/2SM -RA BR BKN007 OVC012 08/08 A2942 RMK PK WND 27031/0939 RAE0859B40 P0000 TSNO $ VIA AUTODIAL
PAQT 160929Z AUTO 26024G30KT 6SM BR SCT008 OVC014 09/08 A2941 RMK PK WND 25031/0906 RAE0859 P0000 T00890078 TSNO $ VIA AUTODIAL
PAQT 160853Z AUTO 26024G33KT 8SM -RA OVC021 09/07 A2940 RMK PK WND 25033/0846 RAE02B47 SLP958 P0000 60001 T00940072 401000011 55003 TSNO $ VIA AUTODIAL
PAQT 160753Z AUTO 25022G30KT 9SM -RA BKN027 OVC045 09/07 A2939 RMK PK WND 25030/0752 RAB51 SLP953 P0000 T00940067 TSNO $ VIA AUTODIAL
PAQT 160726Z AUTO 24023KT 10SM BKN027 OVC065 09/07 A2939 RMK PK WND 24030/0657 T00940067 TSNO $ VIA AUTODIAL
PAQT 160653Z AUTO 24021KT 10SM BKN075 09/06 A2940 RMK PK WND 24030/0623 RAB04E13 SLP955 P0001 T00890061 TSNO $ VIA AUTODIAL
PAQT 160553Z AUTO 24021G28KT 10SM BKN030 OVC042 09/06 A2941 RMK PK WND 24028/0551 RAB0457E27 SLP960 P0001 60005 T00890061 10100 20083 56008 TSNO $ VIA AUTODIAL
PAQT 160453Z AUTO 25023G28KT 10SM FEW028 OVC075 09/06 A2941 RMK PK WND 24030/0422 SLP961 T00940061 TSNO $ VIA AUTODIAL
PAQT 160445Z AUTO 25022G27KT 10SM SCT028 OVC080 09/06 A2942 RMK PK WND 24030/0422 T00940061 TSNO $ VIA AUTODIAL
PAQT 160413Z AUTO 24020G27KT 10SM BKN029 OVC036 09/06 A2942 RMK PK WND 24028/0402 T00940061 TSNO $ VIA AUTODIAL
PAQT 160353Z AUTO 24020G27KT 10SM OVC032 09/06 A2943 RMK PK WND 25030/0339 RAE33B41E50 SLP965 P0001 T00890061 TSNO $ VIA AUTODIAL
PAQT 160339Z AUTO 24023G30KT 10SM OVC030 09/06 A2943 RMK PK WND 25030/0339 RAE33 P0001 T00890061 TSNO $ VIA AUTODIAL
PAQT 160326Z AUTO 24017G23KT 8SM -RA BKN028 OVC037 08/07 A2943 RMK PK WND 24027/0309 P0001 T00830067 TSNO $ VIA AUTODIAL
PAQT 160303Z AUTO 24021G27KT 10SM -RA SCT030 OVC035 08/07 A2943 RMK PK WND 24027/0300 P0001 T00830067 TSNO $ VIA AUTODIAL
PAQT 160253Z AUTO 24020G27KT 7SM -RA BKN027 OVC034 08/07 A2943 RMK PK WND 24031/0234 RAB06E15B35 SLP968 P0002 60003 T00830072 58009 TSNO $ VIA AUTODIAL
PAQT 160153Z AUTO 24020G29KT 10SM OVC022 09/07 A2944 RMK PK WND 25036/0131 RAB31E53 SLP971 P0001 T00890072 TSNO $ VIA AUTODIAL
PAQT 160053Z AUTO 25022G33KT 10SM OVC020 10/06 A2946 RMK PK WND 25035/0041 SLP975 T01000061 TSNO $ VIA AUTODIAL
PAQT 152353Z AUTO 24023G29KT 10SM OVC020 08/06 A2946 RMK PK WND 24035/2259 SLP977 60004 T00830056 10083 20039 56006 TSNO $ VIA AUTODIAL
PAQT 152253Z AUTO 24026G35KT 10SM OVC019 08/05 A2947 RMK PK WND 24037/2154 SLP979 T00780050 TSNO $ VIA AUTODIAL
PAQT 152153Z AUTO 24029G40KT 10SM OVC018 07/04 A2947 RMK PK WND 23041/2140 RAB40E50 SLP981 P0000 T00670044 TSNO $ VIA AUTODIAL
PAQT 152053Z AUTO 23027G34KT 10SM OVC019 06/04 A2948 RMK PK WND 23040/2035 RAE08 SLP983 P0000 60004 T00560039 56039 TSNO $ VIA AUTODIAL
PAQT 151953Z AUTO 22021G32KT 8SM -RA OVC026 04/03 A2951 RMK PK WND 21036/1924 RAE24B40 SLP995 P0002 T00440028 TSNO $ VIA AUTODIAL
PAQT 151941Z AUTO 22024G32KT 7SM -RA BKN029 OVC036 04/03 A2952 RMK PK WND 21036/1924 RAE24B40 P0002 T00440028 TSNO $ VIA AUTODIAL
PAQT 151853Z AUTO 21023G31KT 9SM -RA OVC041 04/02 A2955 RMK PK WND 21031/1849 RAB1756 SLP007 P0002 T00440017 TSNO $ VIA AUTODIAL
PAQT 151753Z AUTO 21020G24KT 10SM 05/01 A2960 RMK PK WND 22026/1742 SLP023 T00500006 10050 20011 56036 TSNO $ VIA AUTODIAL
PAQT 151653Z AUTO 22018G26KT 10SM OVC090 04/01 A2963 RMK PK WND 21027/1625 SLP034 T00440011 TSNO $ VIA AUTODIAL
PAQT 151553Z AUTO 21019G23KT 10SM OVC100 03/02 A2966 RMK SLP044 T00330017 TSNO $ VIA AUTODIAL
PAQT 151453Z AUTO 21016G22KT 10SM BKN110 03/01 A2970 RMK SLP059 T00280011 58031 TSNO $ VIA AUTODIAL